Time;durP1;ratioP1;P1;durP2;ratioP2;P2;SDS_P1;SDS_P2;PMS_P1;PMS_P2;Temp;Humidity;BMP_temperature;BMP_pressure;BME280_temperature;BME280_humidity;BME280_pressure;Samples;Min_cycle;Max_cycle;Signal;HPM_P1;HPM_P2
2022/07/14 00:00:22;;;;;;;9.60;2.10;;;16.80;99.90;;;;;;5072790;28;20101;-67
2022/07/14 00:02:48;;;;;;;11.88;1.95;;;16.80;99.90;;;;;;5090699;28;20099;-66
2022/07/14 00:05:13;;;;;;;7.32;2.20;;;16.80;99.90;;;;;;5094447;28;20027;-67
2022/07/14 00:07:39;;;;;;;8.85;1.92;;;16.80;99.90;;;;;;5105732;28;20072;-66
2022/07/14 00:10:05;;;;;;;12.30;2.20;;;16.70;99.90;;;;;;5097101;28;20165;-67
2022/07/14 00:12:31;;;;;;;8.63;1.67;;;16.60;99.90;;;;;;5090580;28;20043;-67
2022/07/14 00:14:57;;;;;;;8.07;2.22;;;16.60;99.90;;;;;;5091449;28;20496;-66
2022/07/14 00:17:22;;;;;;;11.00;1.88;;;16.60;99.90;;;;;;5089397;28;20055;-66
2022/07/14 00:19:48;;;;;;;8.05;2.05;;;16.60;99.90;;;;;;5090846;28;20488;-66
2022/07/14 00:22:14;;;;;;;11.45;2.20;;;16.60;99.90;;;;;;5089250;28;20036;-66
2022/07/14 00:24:39;;;;;;;14.35;2.22;;;16.60;99.90;;;;;;5089420;28;20040;-66
2022/07/14 00:27:05;;;;;;;10.40;2.58;;;16.60;99.90;;;;;;5089494;28;20439;-67
2022/07/14 00:29:30;;;;;;;9.35;2.33;;;16.50;99.90;;;;;;5090957;28;20040;-66
2022/07/14 00:31:56;;;;;;;12.15;2.30;;;16.50;99.90;;;;;;5090640;28;20039;-66
2022/07/14 00:34:21;;;;;;;10.38;2.20;;;16.50;99.90;;;;;;5090382;28;20040;-66
2022/07/14 00:36:47;;;;;;;10.30;2.10;;;16.50;99.90;;;;;;5090584;28;20186;-67
2022/07/14 00:39:12;;;;;;;11.07;2.17;;;16.50;99.90;;;;;;5090713;28;20044;-66
2022/07/14 00:41:38;;;;;;;11.65;2.28;;;16.50;99.90;;;;;;5089173;28;20073;-66
2022/07/14 00:44:04;;;;;;;8.40;2.33;;;16.40;99.90;;;;;;5090474;28;20032;-67
2022/07/14 00:46:29;;;;;;;7.70;2.30;;;16.40;99.90;;;;;;5090323;28;20102;-66
2022/07/14 00:48:55;;;;;;;15.80;2.75;;;16.30;99.90;;;;;;5090585;28;20169;-66
2022/07/14 00:51:20;;;;;;;6.47;1.90;;;16.30;99.90;;;;;;5090634;28;20032;-66
2022/07/14 00:53:55;;;;;;;14.52;2.28;;;16.30;99.90;;;;;;5090393;28;20039;-66
2022/07/14 00:56:21;;;;;;;10.15;2.45;;;16.20;99.90;;;;;;5090612;28;20358;-66
2022/07/14 00:58:46;;;;;;;7.72;2.10;;;16.20;99.90;;;;;;5090467;28;20110;-66
2022/07/14 01:01:12;;;;;;;10.25;2.20;;;16.20;99.90;;;;;;5088934;28;20579;-66
2022/07/14 01:03:38;;;;;;;12.68;2.78;;;16.20;99.90;;;;;;5090415;28;20036;-66
2022/07/14 01:06:04;;;;;;;11.35;2.53;;;16.20;99.90;;;;;;5089158;28;20075;-66
2022/07/14 01:08:30;;;;;;;13.25;2.60;;;16.20;99.90;;;;;;5090030;28;20051;-66
2022/07/14 01:10:55;;;;;;;13.40;2.75;;;16.10;99.90;;;;;;5090491;28;20036;-66
2022/07/14 01:13:21;;;;;;;10.45;2.58;;;16.10;99.90;;;;;;5096483;28;20040;-66
2022/07/14 01:15:46;;;;;;;14.65;2.58;;;16.10;99.90;;;;;;5110705;28;20062;-66
2022/07/14 01:18:12;;;;;;;8.77;2.25;;;16.10;99.90;;;;;;5096360;28;20064;-66
2022/07/14 01:20:37;;;;;;;14.88;2.65;;;16.10;99.90;;;;;;5094340;28;20044;-66
2022/07/14 01:23:03;;;;;;;15.73;2.53;;;16.00;99.90;;;;;;5093849;28;20484;-66
2022/07/14 01:25:29;;;;;;;11.65;3.10;;;16.00;99.90;;;;;;5093739;28;20036;-66
2022/07/14 01:27:54;;;;;;;12.52;2.90;;;16.00;99.90;;;;;;5093858;28;20050;-66
2022/07/14 01:30:20;;;;;;;9.88;2.97;;;16.00;99.90;;;;;;5093806;28;20044;-66
2022/07/14 01:32:46;;;;;;;8.82;2.83;;;15.90;99.90;;;;;;5093826;28;20177;-66
2022/07/14 01:35:12;;;;;;;10.00;2.90;;;15.90;99.90;;;;;;5093551;28;20495;-66
2022/07/14 01:37:37;;;;;;;13.60;2.47;;;15.90;99.90;;;;;;5092350;28;20040;-66
2022/07/14 01:40:04;;;;;;;10.02;2.40;;;15.90;99.90;;;;;;5093019;28;20040;-66
2022/07/14 01:42:30;;;;;;;8.18;2.15;;;15.80;99.90;;;;;;5093810;28;20349;-66
2022/07/14 01:44:55;;;;;;;5.22;2.00;;;15.70;99.90;;;;;;5092369;28;20483;-66
2022/07/14 01:47:21;;;;;;;8.40;2.08;;;15.50;99.90;;;;;;5093570;28;20040;-66
2022/07/14 01:49:47;;;;;;;4.78;2.17;;;15.30;99.90;;;;;;5093346;28;20047;-66
2022/07/14 01:52:12;;;;;;;8.60;2.00;;;15.40;99.90;;;;;;5091898;28;20067;-66
2022/07/14 01:54:38;;;;;;;7.47;2.28;;;15.50;99.90;;;;;;5093476;28;20086;-66
2022/07/14 01:57:06;;;;;;;13.00;2.65;;;15.50;99.90;;;;;;5092852;28;20040;-66
2022/07/14 01:59:31;;;;;;;5.57;2.00;;;15.40;99.90;;;;;;5093241;28;20046;-66
2022/07/14 02:01:58;;;;;;;8.48;2.35;;;15.40;99.90;;;;;;5091677;28;20531;-66
2022/07/14 02:04:23;;;;;;;9.40;2.20;;;15.40;99.90;;;;;;5093005;28;20122;-66
2022/07/14 02:06:54;;;;;;;6.63;2.40;;;15.40;99.90;;;;;;5092771;28;20143;-66
2022/07/14 02:09:21;;;;;;;9.38;2.22;;;15.30;99.90;;;;;;5093059;28;20523;-66
2022/07/14 02:14:33;;;;;;;9.52;2.10;;;15.30;99.90;;;;;;5093071;28;20040;-66
2022/07/14 02:16:59;;;;;;;7.43;2.15;;;15.30;99.90;;;;;;5093116;28;20404;-66
2022/07/14 02:19:24;;;;;;;10.75;2.78;;;15.30;99.90;;;;;;5093088;28;20043;-66
2022/07/14 02:21:54;;;;;;;6.78;2.30;;;15.20;99.90;;;;;;5103587;28;20115;-66
2022/07/14 02:24:21;;;;;;;15.00;2.33;;;15.20;99.90;;;;;;5113427;28;20028;-66
2022/07/14 02:26:50;;;;;;;8.05;2.30;;;15.20;99.90;;;;;;5093784;28;20036;-66
2022/07/14 02:29:16;;;;;;;6.38;1.88;;;15.20;99.90;;;;;;5092820;28;20040;-66
2022/07/14 02:31:44;;;;;;;7.53;1.95;;;15.20;99.90;;;;;;5091607;28;20051;-66
2022/07/14 02:34:11;;;;;;;8.02;2.10;;;15.10;99.90;;;;;;5090943;28;20062;-66
2022/07/14 02:36:38;;;;;;;8.85;2.20;;;15.00;99.90;;;;;;5092595;28;20047;-67
2022/07/14 02:39:04;;;;;;;8.75;1.90;;;14.90;99.90;;;;;;5092294;28;20036;-66
2022/07/14 02:41:30;;;;;;;4.75;1.80;;;14.90;99.90;;;;;;5092714;28;20046;-66
2022/07/14 02:43:55;;;;;;;6.70;2.00;;;14.80;99.90;;;;;;5092158;28;20039;-66
2022/07/14 02:46:21;;;;;;;4.32;1.45;;;14.80;99.90;;;;;;5092283;28;20036;-66
2022/07/14 02:48:47;;;;;;;8.13;2.00;;;14.80;99.90;;;;;;5092394;28;20090;-66
2022/07/14 02:51:13;;;;;;;6.32;1.75;;;14.80;99.90;;;;;;5092254;28;20119;-66
2022/07/14 02:53:39;;;;;;;4.70;1.88;;;14.70;99.90;;;;;;5091932;28;20119;-66
2022/07/14 02:56:06;;;;;;;7.30;1.67;;;14.70;99.90;;;;;;5091302;28;20400;-66
2022/07/14 02:58:32;;;;;;;8.75;2.15;;;14.70;99.90;;;;;;5092246;28;20040;-66
2022/07/14 03:00:58;;;;;;;5.80;2.15;;;14.70;99.90;;;;;;5092776;28;20044;-66
2022/07/14 03:03:24;;;;;;;6.80;1.63;;;14.70;99.90;;;;;;5092206;28;20510;-66
2022/07/14 03:05:50;;;;;;;12.45;2.35;;;14.70;99.90;;;;;;5092246;28;20040;-66
2022/07/14 03:08:16;;;;;;;9.05;2.25;;;14.70;99.90;;;;;;5090487;28;20113;-66
2022/07/14 03:10:42;;;;;;;9.63;2.58;;;14.70;99.90;;;;;;5092170;28;20121;-66
2022/07/14 03:13:08;;;;;;;6.60;2.40;;;14.70;99.90;;;;;;5091894;28;20040;-66
2022/07/14 03:15:35;;;;;;;4.63;1.90;;;14.60;99.90;;;;;;5091789;28;20094;-66
2022/07/14 03:18:01;;;;;;;7.25;2.20;;;14.60;99.90;;;;;;5091668;28;20049;-66
2022/07/14 03:20:27;;;;;;;5.10;1.67;;;14.50;99.90;;;;;;5089783;28;20044;-66
2022/07/14 03:22:53;;;;;;;4.97;1.90;;;14.40;99.90;;;;;;5086831;28;20040;-66
2022/07/14 03:25:19;;;;;;;6.32;1.70;;;14.50;99.90;;;;;;5089544;28;20040;-66
2022/07/14 03:27:46;;;;;;;7.85;2.00;;;14.40;99.90;;;;;;5090233;28;20547;-66
2022/07/14 03:30:13;;;;;;;5.95;2.20;;;14.40;99.90;;;;;;5107237;28;20039;-66
2022/07/14 03:32:42;;;;;;;11.18;2.45;;;14.50;99.90;;;;;;5108679;28;20048;-66
2022/07/14 03:35:08;;;;;;;8.35;2.05;;;14.50;99.90;;;;;;5090052;28;20051;-66
2022/07/14 03:37:35;;;;;;;6.90;1.80;;;14.50;99.90;;;;;;5071990;28;20071;-66
2022/07/14 03:40:01;;;;;;;4.80;1.70;;;14.30;99.90;;;;;;5089912;28;20046;-66
2022/07/14 03:42:27;;;;;;;3.03;1.60;;;14.20;99.90;;;;;;5089033;28;20066;-66
2022/07/14 03:44:55;;;;;;;4.03;1.70;;;14.20;99.90;;;;;;5091579;28;20062;-66
2022/07/14 03:47:21;;;;;;;7.10;2.25;;;14.20;99.90;;;;;;5091472;28;20040;-66
2022/07/14 03:49:46;;;;;;;8.18;2.30;;;14.30;99.90;;;;;;5091307;28;20040;-66
2022/07/14 03:52:12;;;;;;;3.75;1.98;;;14.20;99.90;;;;;;5091379;28;20101;-66
2022/07/14 03:54:37;;;;;;;8.63;1.80;;;14.10;99.90;;;;;;5089795;28;20043;-66
2022/07/14 03:57:04;;;;;;;8.02;2.20;;;14.10;99.90;;;;;;5091082;28;20051;-66
2022/07/14 03:59:30;;;;;;;6.75;1.58;;;14.10;99.90;;;;;;5089770;28;20114;-66
2022/07/14 04:01:56;;;;;;;5.53;1.70;;;14.20;99.90;;;;;;5091179;28;20119;-66
2022/07/14 04:04:21;;;;;;;7.57;2.28;;;14.30;99.90;;;;;;5090725;28;20455;-66
2022/07/14 04:06:47;;;;;;;4.78;1.95;;;14.30;99.90;;;;;;5091207;28;20487;-66
2022/07/14 04:09:12;;;;;;;5.18;2.38;;;14.40;99.90;;;;;;5091259;28;20443;-66
2022/07/14 04:11:38;;;;;;;10.68;2.80;;;14.50;99.90;;;;;;5091110;28;20067;-66
2022/07/14 04:14:04;;;;;;;5.55;2.03;;;14.50;99.90;;;;;;5089761;28;20174;-66
2022/07/14 04:16:29;;;;;;;6.85;2.00;;;14.60;99.90;;;;;;5091314;28;20113;-66
2022/07/14 04:18:55;;;;;;;6.93;2.30;;;14.50;99.90;;;;;;5092209;28;20127;-66
2022/07/14 04:21:20;;;;;;;6.40;2.47;;;14.50;99.90;;;;;;5091135;28;20039;-66
2022/07/14 04:23:46;;;;;;;6.78;2.33;;;14.60;99.90;;;;;;5090525;28;20067;-66
2022/07/14 04:26:12;;;;;;;14.43;3.95;;;14.70;99.90;;;;;;5091001;28;20036;-66
2022/07/14 04:28:38;;;;;;;4.80;2.65;;;14.80;99.90;;;;;;5091070;28;20087;-66
2022/07/14 04:31:04;;;;;;;8.70;3.05;;;14.80;99.90;;;;;;5089807;28;20075;-66
2022/07/14 04:33:29;;;;;;;9.55;3.28;;;14.90;99.90;;;;;;5090733;28;20128;-66
2022/07/14 04:35:55;;;;;;;6.43;2.72;;;15.00;99.90;;;;;;5091161;28;20097;-66
2022/07/14 04:38:21;;;;;;;6.88;3.20;;;15.00;99.90;;;;;;5104815;28;20040;-66
2022/07/14 04:40:51;;;;;;;15.18;3.38;;;15.10;99.90;;;;;;5108085;28;20090;-66
2022/07/14 04:43:18;;;;;;;12.98;3.00;;;15.20;99.90;;;;;;5090885;28;20493;-66
2022/07/14 04:45:45;;;;;;;7.95;3.13;;;15.20;99.90;;;;;;5091005;28;20051;-66
2022/07/14 04:48:11;;;;;;;9.30;3.47;;;15.30;99.90;;;;;;5089352;28;20119;-66
2022/07/14 04:53:20;;;;;;;9.88;3.20;;;15.60;99.90;;;;;;5093130;28;20043;-66
2022/07/14 04:55:46;;;;;;;6.13;3.20;;;15.70;99.90;;;;;;5094967;28;20036;-66
2022/07/14 04:58:12;;;;;;;12.73;3.75;;;15.80;99.90;;;;;;5094728;28;20152;-66
2022/07/14 05:00:37;;;;;;;6.47;2.67;;;15.90;99.90;;;;;;5094670;28;20039;-66
2022/07/14 05:03:03;;;;;;;14.77;3.08;;;15.90;99.90;;;;;;5094417;28;20111;-66
2022/07/14 05:05:28;;;;;;;12.95;3.33;;;16.00;99.90;;;;;;5094836;28;20072;-66
2022/07/14 05:07:54;;;;;;;11.15;3.78;;;16.00;99.90;;;;;;5094295;28;20377;-66
2022/07/14 05:10:20;;;;;;;15.27;3.50;;;16.20;99.90;;;;;;5092877;28;20115;-66
2022/07/14 05:12:45;;;;;;;17.30;3.90;;;16.30;99.90;;;;;;5094033;28;20476;-66
2022/07/14 05:15:11;;;;;;;10.73;2.90;;;16.40;99.90;;;;;;5092760;28;20412;-66
2022/07/14 05:17:36;;;;;;;9.43;3.38;;;16.40;99.90;;;;;;5094275;28;20036;-66
2022/07/14 05:20:03;;;;;;;11.40;3.50;;;16.40;99.90;;;;;;5093991;28;20556;-67
2022/07/14 05:22:37;;;;;;;11.13;2.95;;;16.40;99.90;;;;;;5093735;28;20040;-66
2022/07/14 05:25:11;;;;;;;8.88;2.88;;;16.60;99.90;;;;;;5092828;28;20044;-67
2022/07/14 05:27:37;;;;;;;13.23;3.33;;;16.60;99.90;;;;;;5093667;28;20043;-67
2022/07/14 05:30:06;;;;;;;8.95;2.88;;;16.70;99.90;;;;;;5093367;28;20047;-67
2022/07/14 05:32:32;;;;;;;8.60;3.00;;;16.80;99.90;;;;;;5093916;28;20054;-67
2022/07/14 05:34:58;;;;;;;12.60;3.00;;;17.00;99.90;;;;;;5096781;28;20095;-67
2022/07/14 05:37:24;;;;;;;10.93;2.50;;;17.10;99.90;;;;;;5096395;28;20044;-66
2022/07/14 05:39:50;;;;;;;9.52;3.00;;;17.20;99.90;;;;;;5094488;28;20059;-66
2022/07/14 05:42:18;;;;;;;11.95;2.75;;;17.00;99.90;;;;;;5094162;28;20449;-66
2022/07/14 05:44:44;;;;;;;11.50;2.42;;;17.20;99.90;;;;;;5094826;28;20040;-67
2022/07/14 05:47:09;;;;;;;8.63;2.45;;;17.30;99.90;;;;;;5111474;28;20087;-66
2022/07/14 05:49:35;;;;;;;9.73;3.22;;;17.40;99.90;;;;;;5103474;28;20063;-66
2022/07/14 05:52:02;;;;;;;11.32;2.40;;;17.40;99.90;;;;;;5110220;28;20044;-66
2022/07/14 05:54:28;;;;;;;10.90;2.53;;;17.60;99.90;;;;;;5114124;28;20120;-70
2022/07/14 05:56:53;;;;;;;10.45;2.15;;;17.70;99.90;;;;;;5112304;28;20511;-68
2022/07/14 05:59:19;;;;;;;12.95;2.58;;;17.80;99.90;;;;;;5113785;28;20357;-68
2022/07/14 06:01:44;;;;;;;10.00;2.33;;;17.90;99.90;;;;;;5113984;28;20070;-71
2022/07/14 06:04:10;;;;;;;16.25;2.80;;;17.80;99.90;;;;;;5112248;28;20036;-69
2022/07/14 06:06:35;;;;;;;10.77;2.22;;;17.80;99.90;;;;;;5114392;28;20137;-71
2022/07/14 06:09:01;;;;;;;12.38;2.50;;;17.80;99.90;;;;;;5096350;28;20389;-71
2022/07/14 06:11:27;;;;;;;9.35;2.38;;;17.70;99.90;;;;;;5113671;28;20032;-67
2022/07/14 06:13:52;;;;;;;14.07;2.38;;;17.60;99.90;;;;;;5113303;28;20101;-67
2022/07/14 06:16:18;;;;;;;6.38;2.10;;;17.60;99.90;;;;;;5113566;28;20088;-67
2022/07/14 06:18:44;;;;;;;7.75;2.97;;;17.60;99.90;;;;;;5113418;28;20039;-68
2022/07/14 06:21:10;;;;;;;9.05;1.90;;;17.70;99.90;;;;;;5113410;28;20676;-68
2022/07/14 06:23:36;;;;;;;7.43;2.10;;;17.60;99.90;;;;;;5112982;28;20337;-67
2022/07/14 06:26:08;;;;;;;10.10;2.60;;;17.60;99.90;;;;;;5113284;28;20087;-67
2022/07/14 06:28:34;;;;;;;13.00;2.10;;;17.70;99.90;;;;;;5113846;28;20508;-67
2022/07/14 06:30:59;;;;;;;11.95;2.13;;;17.80;99.90;;;;;;5113614;28;20055;-67
2022/07/14 06:33:25;;;;;;;7.32;1.90;;;17.80;99.90;;;;;;5112850;28;20043;-67
2022/07/14 06:35:51;;;;;;;9.80;2.00;;;17.70;99.90;;;;;;5113009;28;20048;-67
2022/07/14 06:38:17;;;;;;;6.97;2.25;;;17.80;99.90;;;;;;5112882;28;20040;-67
2022/07/14 06:40:42;;;;;;;8.55;1.90;;;17.80;99.90;;;;;;5112932;28;20047;-67
2022/07/14 06:43:08;;;;;;;16.25;2.60;;;17.80;99.90;;;;;;5112984;28;20092;-67
2022/07/14 06:45:34;;;;;;;8.73;2.33;;;17.80;99.90;;;;;;5112893;28;20073;-67
2022/07/14 06:47:59;;;;;;;11.20;1.77;;;17.80;99.90;;;;;;5112934;28;20791;-68
2022/07/14 06:50:25;;;;;;;11.68;2.50;;;17.80;99.90;;;;;;5113181;28;20078;-68
2022/07/14 06:52:50;;;;;;;10.35;2.05;;;17.80;99.90;;;;;;5112238;28;20050;-68
2022/07/14 06:55:17;;;;;;;8.27;1.90;;;18.00;99.90;;;;;;5115205;28;20051;-69
2022/07/14 06:57:43;;;;;;;8.57;1.50;;;18.00;99.90;;;;;;5069329;28;20036;-71
2022/07/14 07:00:09;;;;;;;11.95;2.15;;;18.10;99.90;;;;;;5082358;28;20040;-72
2022/07/14 07:02:36;;;;;;;10.40;2.28;;;18.10;99.90;;;;;;5072201;28;20420;-71
2022/07/14 07:07:48;;;;;;;7.88;1.63;;;18.20;99.90;;;;;;5071717;28;20041;-72
2022/07/14 07:10:14;;;;;;;8.45;1.60;;;18.20;99.90;;;;;;5072318;28;20036;-72
2022/07/14 07:12:39;;;;;;;7.30;1.60;;;18.10;99.90;;;;;;5071296;28;20054;-71
2022/07/14 07:15:06;;;;;;;7.20;1.65;;;18.00;99.90;;;;;;5070910;28;20058;-72
2022/07/14 07:17:31;;;;;;;10.32;1.40;;;18.20;99.90;;;;;;5053598;28;20402;-71
2022/07/14 07:19:57;;;;;;;5.53;1.40;;;18.00;99.90;;;;;;5071110;28;20064;-72
2022/07/14 07:22:22;;;;;;;6.10;1.70;;;18.00;99.90;;;;;;5070300;28;20051;-72
2022/07/14 07:24:48;;;;;;;7.38;1.30;;;18.00;99.90;;;;;;5072019;28;20124;-71
2022/07/14 07:27:13;;;;;;;8.38;1.20;;;18.20;99.90;;;;;;5072468;28;20531;-71
2022/07/14 07:29:39;;;;;;;3.97;1.08;;;18.10;99.90;;;;;;5072388;28;20041;-72
2022/07/14 07:32:05;;;;;;;3.25;1.00;;;17.90;99.90;;;;;;5072475;28;20079;-72
2022/07/14 07:34:31;;;;;;;9.25;1.25;;;18.20;99.90;;;;;;5070383;28;20066;-72
2022/07/14 07:36:56;;;;;;;5.97;1.20;;;18.20;99.90;;;;;;5071679;28;20037;-71
2022/07/14 07:39:22;;;;;;;11.48;1.50;;;18.50;99.90;;;;;;5070823;28;20120;-71
2022/07/14 07:41:47;;;;;;;8.10;1.45;;;18.60;99.90;;;;;;5071698;28;20123;-72
2022/07/14 07:44:13;;;;;;;5.38;1.17;;;18.70;99.90;;;;;;5071952;28;20055;-72
2022/07/14 07:46:38;;;;;;;7.55;1.33;;;18.80;99.90;;;;;;5070853;28;20047;-72
2022/07/14 07:49:06;;;;;;;9.32;1.40;;;18.90;99.90;;;;;;5071625;28;20048;-71
2022/07/14 07:51:31;;;;;;;5.15;1.30;;;19.10;99.90;;;;;;5070418;28;20036;-72
2022/07/14 07:53:57;;;;;;;11.52;1.30;;;19.10;99.90;;;;;;5071402;28;20489;-73
2022/07/14 07:56:22;;;;;;;4.60;1.10;;;19.30;99.90;;;;;;5071794;28;20036;-72
2022/07/14 07:58:48;;;;;;;6.63;1.10;;;19.50;99.90;;;;;;5069847;28;20067;-71
2022/07/14 08:01:14;;;;;;;8.07;1.20;;;19.60;99.90;;;;;;5078815;28;20036;-72
2022/07/14 08:03:39;;;;;;;6.80;1.27;;;19.70;99.90;;;;;;5092083;28;20040;-73
2022/07/14 08:06:05;;;;;;;5.38;0.90;;;19.80;99.90;;;;;;5075453;28;20044;-71
2022/07/14 08:08:31;;;;;;;3.83;0.90;;;20.00;99.90;;;;;;5072418;28;20047;-72
2022/07/14 08:10:56;;;;;;;3.15;0.82;;;19.80;99.90;;;;;;5071644;28;20037;-72
2022/07/14 08:13:22;;;;;;;8.90;1.15;;;20.00;99.90;;;;;;5071786;28;20044;-72
2022/07/14 08:15:48;;;;;;;5.93;1.02;;;20.20;99.90;;;;;;5070069;28;20081;-71
2022/07/14 08:18:13;;;;;;;7.43;0.90;;;20.10;99.90;;;;;;5069517;28;20048;-71
2022/07/14 08:20:39;;;;;;;13.55;1.30;;;20.10;99.90;;;;;;5071927;28;20044;-70
2022/07/14 08:23:05;;;;;;;7.10;1.15;;;20.20;99.90;;;;;;5072091;28;20041;-69
2022/07/14 08:25:30;;;;;;;2.03;0.90;;;20.30;99.90;;;;;;5070684;28;20032;-69
2022/07/14 08:27:56;;;;;;;3.85;0.82;;;20.40;99.90;;;;;;5068982;28;20047;-71
2022/07/14 08:30:22;;;;;;;4.28;1.08;;;20.40;99.90;;;;;;5069208;28;20036;-70
2022/07/14 08:32:49;;;;;;;5.68;1.30;;;20.10;99.90;;;;;;5070767;28;20712;-70
2022/07/14 08:35:17;;;;;;;6.45;1.15;;;20.00;99.90;;;;;;5090381;28;20575;-70
2022/07/14 08:37:43;;;;;;;4.45;1.20;;;20.00;99.90;;;;;;5090734;28;20036;-70
2022/07/14 08:40:22;;;;;;;6.90;1.30;;;20.00;99.90;;;;;;5090818;28;20396;-69
2022/07/14 08:42:50;;;;;;;7.28;1.25;;;20.10;99.90;;;;;;5090906;28;20409;-69
2022/07/14 08:45:22;;;;;;;6.93;1.13;;;20.10;99.90;;;;;;5089445;28;20127;-70
2022/07/14 08:47:50;;;;;;;7.85;0.98;;;20.40;99.90;;;;;;5090648;28;20032;-70
2022/07/14 08:50:18;;;;;;;4.22;1.08;;;20.00;99.90;;;;;;5089228;28;20048;-70
2022/07/14 08:52:44;;;;;;;7.15;1.13;;;19.90;99.90;;;;;;5088878;28;20516;-70
2022/07/14 08:55:12;;;;;;;4.25;1.08;;;20.10;99.90;;;;;;5090306;28;20089;-70
2022/07/14 08:57:39;;;;;;;8.73;1.10;;;20.00;99.90;;;;;;5090539;28;20381;-70
2022/07/14 09:00:09;;;;;;;4.90;0.90;;;19.90;99.90;;;;;;5089017;28;20131;-70
2022/07/14 09:02:37;;;;;;;3.60;0.85;;;19.70;99.90;;;;;;5089095;28;20040;-70
2022/07/14 09:05:04;;;;;;;5.13;0.77;;;19.80;99.90;;;;;;5090615;28;20055;-70
2022/07/14 09:07:35;;;;;;;5.18;0.82;;;20.00;99.90;;;;;;5090124;28;20039;-69
2022/07/14 09:10:07;;;;;;;4.30;0.82;;;20.10;99.90;;;;;;5114470;28;20064;-69
2022/07/14 09:12:34;;;;;;;3.75;0.80;;;20.30;99.90;;;;;;5104856;28;20048;-70
2022/07/14 09:17:58;;;;;;;5.82;0.93;;;20.40;99.90;;;;;;5090642;28;20053;-70
2022/07/14 09:20:29;;;;;;;6.63;1.02;;;20.60;99.90;;;;;;5089435;28;20048;-71
2022/07/14 09:22:57;;;;;;;8.80;1.00;;;20.70;99.90;;;;;;5090503;28;20036;-71
2022/07/14 09:25:24;;;;;;;3.30;1.00;;;20.80;99.90;;;;;;5090501;28;20059;-70
2022/07/14 09:27:50;;;;;;;5.40;0.98;;;21.00;99.90;;;;;;5089830;28;20052;-70
2022/07/14 09:30:17;;;;;;;6.30;0.90;;;21.00;99.90;;;;;;5090691;28;20051;-70
2022/07/14 09:32:43;;;;;;;8.90;0.80;;;21.20;99.90;;;;;;5088721;28;20114;-70
2022/07/14 09:35:11;;;;;;;4.40;0.75;;;21.20;99.90;;;;;;5088811;28;20079;-70
2022/07/14 09:37:38;;;;;;;6.30;0.98;;;21.40;99.90;;;;;;5089808;28;20554;-70
2022/07/14 09:40:09;;;;;;;4.22;0.70;;;21.30;99.90;;;;;;5091722;28;20055;-69
2022/07/14 09:42:50;;;;;;;5.95;0.85;;;21.30;99.90;;;;;;5093674;28;20040;-71
2022/07/14 09:45:18;;;;;;;6.10;0.90;;;21.20;99.90;;;;;;5112274;28;20047;-67
2022/07/14 09:48:00;;;;;;;3.28;0.77;;;21.10;99.90;;;;;;5113842;28;20048;-68
2022/07/14 09:50:50;;;;;;;3.20;0.85;;;21.20;99.90;;;;;;5113910;28;20127;-67
2022/07/14 09:53:26;;;;;;;3.67;0.90;;;21.20;99.90;;;;;;5113667;28;20050;-67
2022/07/14 09:55:56;;;;;;;6.55;1.10;;;21.20;99.90;;;;;;5114242;28;20050;-67
2022/07/14 09:58:24;;;;;;;2.95;0.90;;;21.20;99.90;;;;;;5113733;28;20165;-67
2022/07/14 10:00:55;;;;;;;11.45;0.77;;;21.20;99.90;;;;;;5113971;28;20043;-67
2022/07/14 10:03:22;;;;;;;3.88;0.70;;;21.30;99.90;;;;;;5113663;28;20040;-67
2022/07/14 10:05:49;;;;;;;3.47;0.85;;;21.10;99.90;;;;;;5114076;28;20035;-67
2022/07/14 10:08:16;;;;;;;3.50;0.70;;;20.40;99.90;;;;;;5113661;28;20076;-67
2022/07/14 10:10:42;;;;;;;3.83;0.85;;;20.60;99.90;;;;;;5113618;28;20065;-67
2022/07/14 10:13:08;;;;;;;4.72;0.73;;;20.70;99.90;;;;;;5113321;28;20040;-67
2022/07/14 10:15:34;;;;;;;4.47;1.08;;;20.70;99.90;;;;;;5114302;28;20050;-67
2022/07/14 10:18:02;;;;;;;4.07;0.65;;;20.50;99.90;;;;;;5129293;28;20095;-67
2022/07/14 10:20:29;;;;;;;6.28;0.90;;;20.80;99.90;;;;;;5126810;28;20131;-67
2022/07/14 10:22:55;;;;;;;5.07;1.23;;;20.90;99.90;;;;;;5115413;28;20043;-67
2022/07/14 10:25:22;;;;;;;6.38;1.00;;;20.80;99.90;;;;;;5114024;28;20059;-67
2022/07/14 10:27:48;;;;;;;2.63;0.60;;;20.90;99.90;;;;;;5113138;28;20496;-67
2022/07/14 10:30:15;;;;;;;3.00;0.80;;;20.90;99.90;;;;;;5113377;28;20036;-67
2022/07/14 10:32:59;;;;;;;5.15;0.80;;;20.90;99.90;;;;;;5112958;27;20055;-67
2022/07/14 10:35:52;;;;;;;2.30;0.75;;;20.80;99.90;;;;;;5112002;28;20074;-67
2022/07/14 10:38:57;;;;;;;736.50;290.13;;;20.80;99.90;;;;;;5112869;28;20044;-68
2022/07/14 10:42:02;;;;;;;57.05;21.98;;;21.00;99.90;;;;;;5110866;28;20078;-67
2022/07/14 10:44:31;;;;;;;39.55;11.98;;;21.10;99.90;;;;;;5111778;28;20038;-71
2022/07/14 10:47:13;;;;;;;19.50;5.53;;;21.20;99.90;;;;;;5113481;27;20092;-71
2022/07/14 10:49:59;;;;;;;;;;;21.20;99.90;;;;;;5111988;28;20630;-71
2022/07/14 10:52:26;;;;;;;13.90;3.80;;;21.30;99.90;;;;;;5111876;28;20010;-71
2022/07/14 10:55:15;;;;;;;7.00;2.60;;;21.10;99.90;;;;;;5111464;28;20078;-71
2022/07/14 10:57:59;;;;;;;4.53;2.10;;;21.20;99.90;;;;;;5111538;28;20055;-71
2022/07/14 11:00:55;;;;;;;7.28;1.88;;;21.30;99.90;;;;;;5111254;28;20039;-70
2022/07/14 11:03:21;;;;;;;10.73;2.13;;;21.20;99.90;;;;;;5093819;28;20040;-71
2022/07/14 11:06:09;;;;;;;5.60;0.90;;;21.30;99.90;;;;;;5111893;28;20036;-71
2022/07/14 11:08:38;;;;;;;6.85;1.58;;;21.40;99.90;;;;;;5092951;28;20555;-71
2022/07/14 11:11:18;;;;;;;5.07;1.00;;;21.40;99.90;;;;;;5090970;28;20381;-71
2022/07/14 11:14:05;;;;;;;6.78;1.50;;;21.40;99.90;;;;;;5101624;28;20487;-71
2022/07/14 11:16:56;;;;;;;2.25;1.05;;;21.30;99.90;;;;;;5092623;28;20041;-71
2022/07/14 11:19:27;;;;;;;5.15;1.27;;;21.40;99.90;;;;;;5081229;28;20120;-71
2022/07/14 11:22:19;;;;;;;4.88;1.10;;;21.60;99.90;;;;;;5082153;28;20052;-71
2022/07/14 11:24:54;;;;;;;5.13;1.40;;;21.50;99.90;;;;;;5100214;28;20016;-71
2022/07/14 11:27:43;;;;;;;4.45;1.08;;;21.40;99.90;;;;;;5110114;28;20032;-71
2022/07/14 11:30:38;;;;;;;2.83;1.05;;;21.40;99.90;;;;;;5081580;28;20036;-71
2022/07/14 11:33:11;;;;;;;4.70;1.10;;;21.60;99.90;;;;;;5075467;28;20052;-71
2022/07/14 11:38:35;;;;;;;4.32;1.10;;;21.50;99.90;;;;;;5070045;28;20048;-71
2022/07/14 11:41:02;;;;;;;5.63;0.73;;;21.50;99.90;;;;;;5071572;28;20128;-71
2022/07/14 11:43:30;;;;;;;3.72;0.70;;;21.60;99.90;;;;;;5071377;28;20036;-71
2022/07/14 11:45:56;;;;;;;5.05;0.88;;;21.90;99.90;;;;;;5070059;28;20097;-71
2022/07/14 11:48:28;;;;;;;2.80;0.85;;;21.70;99.90;;;;;;5069879;28;20455;-71
2022/07/14 11:51:14;;;;;;;1.33;0.70;;;21.80;99.90;;;;;;5071487;28;20040;-71
2022/07/14 11:53:41;;;;;;;3.00;0.80;;;21.90;99.90;;;;;;5078872;28;20108;-71
2022/07/14 11:56:08;;;;;;;3.03;0.70;;;22.00;99.90;;;;;;5090018;28;20048;-71
2022/07/14 11:58:35;;;;;;;3.60;1.00;;;22.00;99.90;;;;;;5073226;28;20047;-71
2022/07/14 12:01:03;;;;;;;1.40;0.60;;;21.90;99.90;;;;;;5091597;28;20072;-71
2022/07/14 12:03:29;;;;;;;5.63;0.98;;;21.90;99.90;;;;;;5091024;28;20047;-71
2022/07/14 12:05:57;;;;;;;2.78;0.77;;;21.90;99.90;;;;;;5090098;28;20582;-71
2022/07/14 12:08:31;;;;;;;5.05;1.00;;;21.70;99.90;;;;;;5089748;28;20127;-71
2022/07/14 12:11:08;;;;;;;4.80;0.70;;;21.80;99.90;;;;;;5090970;28;20561;-71
2022/07/14 12:13:45;;;;;;;3.55;0.80;;;22.00;99.90;;;;;;5091013;28;20499;-72
2022/07/14 12:16:11;;;;;;;3.40;0.70;;;21.90;99.90;;;;;;5073072;28;20519;-71
2022/07/14 12:18:37;;;;;;;2.13;0.47;;;22.00;99.90;;;;;;5089703;28;20052;-71
2022/07/14 12:21:02;;;;;;;2.30;0.77;;;22.30;99.90;;;;;;5089606;28;20039;-71
2022/07/14 12:23:28;;;;;;;4.88;0.60;;;22.20;99.90;;;;;;5089579;28;20123;-71
2022/07/14 12:26:00;;;;;;;3.03;0.73;;;22.30;99.90;;;;;;5091317;28;20036;-71
2022/07/14 12:28:26;;;;;;;;;;;22.20;99.90;;;;;;5090274;28;20128;-71
2022/07/14 12:31:00;;;;;;;2.50;0.55;;;22.40;99.90;;;;;;5090057;28;19916;-71
2022/07/14 12:33:28;;;;;;;2.45;0.60;;;22.40;99.90;;;;;;5106585;28;20036;-71
2022/07/14 12:35:58;;;;;;;1.92;0.90;;;22.50;99.90;;;;;;5108948;28;20072;-72
2022/07/14 12:38:25;;;;;;;3.53;0.95;;;22.40;99.90;;;;;;5091225;28;20119;-72
2022/07/14 12:40:54;;;;;;;7.30;0.80;;;22.30;99.90;;;;;;5091048;28;20044;-71
2022/07/14 12:43:20;;;;;;;4.10;0.80;;;22.40;99.90;;;;;;5090957;28;20047;-71
2022/07/14 12:46:05;;;;;;;3.67;0.80;;;22.40;99.90;;;;;;5089605;28;20044;-71
2022/07/14 12:48:54;;;;;;;2.72;0.70;;;22.60;99.90;;;;;;5090756;28;20165;-71
2022/07/14 12:51:26;;;;;;;2.85;1.02;;;22.70;99.90;;;;;;5072616;28;20043;-71
2022/07/14 12:54:34;;;;;;;2.57;0.67;;;22.50;99.90;;;;;;5090566;28;20442;-71
2022/07/14 12:57:00;;;;;;;4.30;0.70;;;22.70;99.50;;;;;;5081125;28;20072;-71
2022/07/14 12:59:34;;;;;;;3.13;0.88;;;22.70;99.10;;;;;;5090772;28;20131;-71
2022/07/14 13:02:08;;;;;;;1.45;0.70;;;22.40;99.30;;;;;;5090626;28;20036;-71
2022/07/14 13:04:45;;;;;;;3.13;0.70;;;22.30;99.60;;;;;;5090679;28;20115;-71